createdAt,value
2017-08-28T00:00:26.120Z,19.20
2017-08-28T00:02:52.582Z,19.30
2017-08-28T00:05:19.101Z,19.30
2017-08-28T00:07:45.616Z,19.30
2017-08-28T00:10:12.105Z,19.40
2017-08-28T00:12:38.588Z,19.30
2017-08-28T00:15:05.051Z,19.20
2017-08-28T00:17:31.555Z,19.30
2017-08-28T00:19:58.110Z,19.10
2017-08-28T00:22:24.548Z,19.10
2017-08-28T00:24:50.999Z,19.10
2017-08-28T00:27:17.520Z,19.20
2017-08-28T00:29:43.969Z,19.20
2017-08-28T00:32:10.428Z,19.20
2017-08-28T00:34:37.036Z,19.20
2017-08-28T00:37:03.650Z,19.20
2017-08-28T00:39:30.141Z,19.20
2017-08-28T00:41:56.569Z,19.20
2017-08-28T00:44:23.062Z,19.20
2017-08-28T00:46:49.553Z,18.90
2017-08-28T00:49:16.107Z,18.40
2017-08-28T00:51:42.597Z,18.40
2017-08-28T00:54:09.069Z,18.60
2017-08-28T00:56:35.592Z,18.70
2017-08-28T00:59:02.090Z,18.80
2017-08-28T01:01:28.565Z,18.90
2017-08-28T01:03:55.100Z,18.80
2017-08-28T01:06:21.560Z,18.60
2017-08-28T01:08:48.013Z,18.90
2017-08-28T01:11:14.477Z,18.80
2017-08-28T01:13:41.001Z,18.80
2017-08-28T01:16:07.501Z,18.80
2017-08-28T01:18:33.997Z,18.80
2017-08-28T01:21:01.151Z,18.80
2017-08-28T01:23:27.649Z,18.50
2017-08-28T01:25:54.113Z,18.50
2017-08-28T01:28:20.571Z,18.30
2017-08-28T01:30:47.049Z,18.40
2017-08-28T01:33:13.512Z,18.40
2017-08-28T01:35:40.045Z,18.40
2017-08-28T01:38:06.504Z,18.50
2017-08-28T01:40:32.998Z,18.30
2017-08-28T01:42:59.495Z,18.20
2017-08-28T01:45:25.929Z,18.10
2017-08-28T01:47:52.403Z,18.30
2017-08-28T01:50:18.858Z,18.30
2017-08-28T01:52:45.334Z,18.40
2017-08-28T01:55:11.762Z,18.40
2017-08-28T01:57:38.200Z,18.40
2017-08-28T02:00:04.730Z,18.40
2017-08-28T02:02:31.265Z,18.50
2017-08-28T02:04:57.721Z,18.10
2017-08-28T02:07:24.213Z,18.10
2017-08-28T02:09:50.676Z,18.00
2017-08-28T02:12:17.181Z,17.90
2017-08-28T02:14:43.679Z,17.70
2017-08-28T02:17:10.124Z,17.80
2017-08-28T02:19:36.635Z,17.70
2017-08-28T02:22:03.089Z,17.70
2017-08-28T02:24:29.515Z,17.80
2017-08-28T02:26:56.010Z,17.80
2017-08-28T02:29:22.496Z,17.90
2017-08-28T02:31:48.976Z,17.80
2017-08-28T02:34:15.443Z,17.80
2017-08-28T02:36:41.893Z,17.90
2017-08-28T02:39:08.346Z,17.80
2017-08-28T02:41:34.802Z,17.80
2017-08-28T02:44:01.295Z,17.90
2017-08-28T02:46:27.757Z,17.60
2017-08-28T02:48:54.940Z,17.60
2017-08-28T02:51:21.426Z,17.60
2017-08-28T02:53:47.910Z,17.40
2017-08-28T02:56:14.375Z,17.50
2017-08-28T02:58:40.806Z,17.60
2017-08-28T03:01:07.397Z,17.30
2017-08-28T03:03:33.869Z,17.30
2017-08-28T03:06:00.329Z,17.40
2017-08-28T03:08:26.826Z,17.40
2017-08-28T03:10:53.377Z,17.40
2017-08-28T03:13:19.883Z,17.50
2017-08-28T03:15:46.301Z,17.50
2017-08-28T03:18:12.792Z,17.50
2017-08-28T03:20:39.293Z,17.20
2017-08-28T03:23:05.730Z,17.00
2017-08-28T03:25:32.179Z,16.90
2017-08-28T03:27:58.649Z,16.60
2017-08-28T03:30:25.193Z,16.30
2017-08-28T03:32:51.682Z,16.30
2017-08-28T03:35:18.165Z,16.40
2017-08-28T03:37:44.762Z,16.40
2017-08-28T03:40:11.245Z,16.40
2017-08-28T03:42:37.769Z,16.50
2017-08-28T03:45:04.334Z,16.80
2017-08-28T03:47:30.876Z,16.70
2017-08-28T03:49:57.356Z,16.80
2017-08-28T03:52:23.838Z,16.80
2017-08-28T03:54:50.366Z,16.90
2017-08-28T03:57:16.847Z,17.00
2017-08-28T03:59:43.382Z,17.10
2017-08-28T04:02:09.865Z,17.10
2017-08-28T04:04:36.333Z,17.10
2017-08-28T04:07:02.940Z,17.00
2017-08-28T04:09:29.507Z,16.70
2017-08-28T04:11:55.978Z,16.60
2017-08-28T04:14:22.413Z,16.60
2017-08-28T04:16:48.884Z,16.70
2017-08-28T04:19:15.363Z,16.80
2017-08-28T04:21:41.809Z,16.90
2017-08-28T04:24:08.344Z,17.00
2017-08-28T04:26:34.842Z,17.00
2017-08-28T04:29:01.352Z,16.90
2017-08-28T04:31:27.861Z,16.90
2017-08-28T04:33:54.291Z,17.00
2017-08-28T04:36:20.790Z,17.10
2017-08-28T04:38:47.224Z,17.00
2017-08-28T04:41:13.682Z,16.60
2017-08-28T04:43:40.161Z,16.50
2017-08-28T04:46:06.711Z,16.60
2017-08-28T04:48:33.224Z,16.50
2017-08-28T04:50:59.676Z,16.50
2017-08-28T04:53:26.162Z,16.50
2017-08-28T04:55:52.617Z,16.60
2017-08-28T04:58:19.102Z,16.70
2017-08-28T05:00:45.542Z,16.90
2017-08-28T05:03:12.041Z,16.50
2017-08-28T05:05:38.540Z,16.60
2017-08-28T05:08:05.054Z,16.70
2017-08-28T05:10:31.494Z,16.80
2017-08-28T05:12:57.961Z,16.90
2017-08-28T05:15:24.446Z,16.90
2017-08-28T05:17:51.002Z,16.80
2017-08-28T05:20:17.589Z,17.00
2017-08-28T05:22:44.098Z,17.00
2017-08-28T05:25:10.579Z,17.20
2017-08-28T05:27:37.129Z,17.10
2017-08-28T05:30:03.570Z,17.20
2017-08-28T05:32:30.017Z,17.30
2017-08-28T05:34:56.495Z,17.40
2017-08-28T05:37:22.981Z,17.50
2017-08-28T05:39:49.536Z,17.30
2017-08-28T05:42:16.043Z,17.10
2017-08-28T05:44:42.485Z,17.30
2017-08-28T05:47:08.949Z,17.40
2017-08-28T05:49:35.434Z,17.50
2017-08-28T05:52:01.869Z,17.60
2017-08-28T05:54:28.362Z,17.40
2017-08-28T05:56:54.813Z,17.00
2017-08-28T05:59:21.295Z,17.30
2017-08-28T06:01:47.802Z,17.40
2017-08-28T06:04:14.294Z,17.70
2017-08-28T06:06:40.783Z,18.10
2017-08-28T06:09:07.430Z,18.40
2017-08-28T06:11:33.879Z,18.50
2017-08-28T06:14:00.332Z,18.70
2017-08-28T06:16:27.646Z,19.10
2017-08-28T06:18:54.091Z,19.10
2017-08-28T06:21:20.521Z,19.30
2017-08-28T06:23:47.056Z,19.50
2017-08-28T06:26:13.882Z,19.70
2017-08-28T06:28:40.354Z,19.90
2017-08-28T06:31:06.817Z,20.00
2017-08-28T06:33:33.321Z,20.10
2017-08-28T06:35:59.804Z,20.20
2017-08-28T06:38:26.224Z,20.40
2017-08-28T06:40:52.646Z,20.70
2017-08-28T06:43:19.178Z,20.80
2017-08-28T06:45:45.618Z,20.80
2017-08-28T06:48:12.123Z,20.90
2017-08-28T06:50:39.220Z,21.10
2017-08-28T06:53:05.767Z,21.10
2017-08-28T06:55:32.207Z,21.40
2017-08-28T06:57:58.638Z,21.40
2017-08-28T07:00:25.105Z,21.30
2017-08-28T07:02:51.653Z,21.40
2017-08-28T07:05:18.094Z,21.70
2017-08-28T07:07:44.570Z,22.20
2017-08-28T07:10:11.010Z,22.10
2017-08-28T07:12:37.546Z,22.50
2017-08-28T07:15:04.017Z,23.40
2017-08-28T07:17:30.464Z,23.00
2017-08-28T07:19:56.953Z,23.50
2017-08-28T07:22:24.178Z,24.20
2017-08-28T07:24:50.654Z,24.20
2017-08-28T07:27:17.101Z,24.80
2017-08-28T07:29:43.586Z,25.20
2017-08-28T07:32:10.021Z,25.50
2017-08-28T07:34:36.535Z,25.80
2017-08-28T07:37:03.041Z,26.20
2017-08-28T07:39:29.486Z,26.40
2017-08-28T07:41:55.937Z,26.30
2017-08-28T07:44:22.382Z,26.70
2017-08-28T07:46:48.873Z,27.10
2017-08-28T07:49:15.387Z,27.10
2017-08-28T07:51:41.852Z,27.10
2017-08-28T07:54:08.334Z,27.50
2017-08-28T07:56:34.762Z,27.50
2017-08-28T07:59:01.227Z,27.80
2017-08-28T08:01:27.696Z,28.30
2017-08-28T08:03:54.156Z,28.40
2017-08-28T08:06:20.658Z,28.70
2017-08-28T08:08:47.209Z,29.10
2017-08-28T08:11:13.712Z,29.40
2017-08-28T08:13:40.177Z,29.40
2017-08-28T08:16:06.681Z,29.40
2017-08-28T08:18:33.177Z,29.80
2017-08-28T08:20:59.697Z,29.60
2017-08-28T08:23:26.222Z,29.80
2017-08-28T08:25:52.701Z,30.30
2017-08-28T08:28:19.262Z,30.50
2017-08-28T08:30:45.777Z,30.80
2017-08-28T08:33:12.306Z,31.00
2017-08-28T08:35:38.805Z,31.30
2017-08-28T08:38:05.299Z,31.60
2017-08-28T08:40:31.799Z,31.80
2017-08-28T08:42:58.338Z,31.90
2017-08-28T08:45:24.833Z,31.80
2017-08-28T08:47:51.368Z,32.10
2017-08-28T08:50:17.838Z,32.50
2017-08-28T08:52:44.291Z,32.70
2017-08-28T08:55:10.766Z,32.90
2017-08-28T08:57:37.270Z,32.90
2017-08-28T09:00:03.830Z,32.50
2017-08-28T09:02:30.326Z,32.10
2017-08-28T09:04:56.861Z,32.10
2017-08-28T09:07:23.350Z,32.80
2017-08-28T09:09:49.837Z,33.30
2017-08-28T09:12:16.386Z,33.70
2017-08-28T09:14:42.846Z,34.30
2017-08-28T09:17:09.335Z,34.30
2017-08-28T09:19:35.888Z,34.40
2017-08-28T09:22:02.350Z,34.70
2017-08-28T09:24:28.836Z,34.50
2017-08-28T09:26:55.283Z,34.80
2017-08-28T09:29:21.786Z,34.60
2017-08-28T09:31:48.230Z,34.60
2017-08-28T09:34:14.670Z,35.10
2017-08-28T09:36:41.133Z,35.30
2017-08-28T09:39:07.569Z,35.00
2017-08-28T09:41:34.041Z,35.50
2017-08-28T09:44:00.530Z,35.80
2017-08-28T09:46:27.082Z,36.50
2017-08-28T09:48:53.557Z,36.60
2017-08-28T09:51:20.036Z,36.00
2017-08-28T09:53:46.479Z,36.20
2017-08-28T09:56:13.049Z,35.90
2017-08-28T09:58:39.499Z,35.80
2017-08-28T10:01:06.010Z,36.10
2017-08-28T10:03:32.527Z,36.40
2017-08-28T10:05:58.992Z,36.20
2017-08-28T10:08:25.456Z,36.30
2017-08-28T10:10:51.932Z,35.30
2017-08-28T10:13:18.401Z,34.50
2017-08-28T10:15:44.891Z,34.40
2017-08-28T10:18:11.369Z,35.10
2017-08-28T10:20:37.873Z,34.90
2017-08-28T10:23:04.330Z,35.20
2017-08-28T10:25:30.808Z,35.00
2017-08-28T10:27:57.290Z,35.20
2017-08-28T10:30:23.771Z,35.10
2017-08-28T10:32:50.242Z,35.30
2017-08-28T10:35:16.721Z,34.90
2017-08-28T10:37:43.194Z,34.60
2017-08-28T10:40:09.647Z,34.60
2017-08-28T10:42:36.120Z,35.30
2017-08-28T10:45:02.706Z,35.60
2017-08-28T10:47:29.168Z,36.30
2017-08-28T10:49:55.625Z,36.10
2017-08-28T10:52:22.139Z,36.40
2017-08-28T10:54:48.654Z,36.10
2017-08-28T10:57:15.388Z,35.90
2017-08-28T10:59:41.856Z,36.00
2017-08-28T11:02:08.342Z,36.10
2017-08-28T11:04:34.782Z,36.20
2017-08-28T11:07:01.317Z,36.00
2017-08-28T11:09:27.810Z,36.00
2017-08-28T11:11:54.262Z,36.10
2017-08-28T11:14:20.792Z,35.80
2017-08-28T11:16:47.229Z,35.60
2017-08-28T11:19:13.722Z,35.30
2017-08-28T11:21:40.190Z,35.00
2017-08-28T11:24:06.654Z,34.80
2017-08-28T11:26:33.111Z,34.60
2017-08-28T11:28:59.586Z,34.20
2017-08-28T11:31:26.032Z,34.00
2017-08-28T11:33:52.507Z,33.80
2017-08-28T11:36:19.044Z,33.70
2017-08-28T11:38:45.493Z,33.30
2017-08-28T11:41:11.953Z,33.30
2017-08-28T11:43:38.426Z,33.30
2017-08-28T11:46:04.987Z,32.90
2017-08-28T11:48:31.479Z,32.20
2017-08-28T11:50:57.945Z,31.90
2017-08-28T11:53:24.390Z,32.00
2017-08-28T11:55:50.850Z,31.80
2017-08-28T11:58:17.320Z,32.00
2017-08-28T12:00:43.790Z,31.80
2017-08-28T12:03:10.222Z,31.80
2017-08-28T12:05:36.693Z,32.00
2017-08-28T12:08:03.158Z,31.90
2017-08-28T12:10:29.640Z,32.00
2017-08-28T12:12:56.092Z,32.20
2017-08-28T12:15:22.554Z,32.40
2017-08-28T12:17:49.105Z,31.80
2017-08-28T12:20:15.625Z,31.90
2017-08-28T12:22:42.067Z,31.70
2017-08-28T12:25:08.581Z,31.50
2017-08-28T12:27:35.055Z,31.60
2017-08-28T12:30:01.564Z,31.30
2017-08-28T12:32:28.002Z,31.30
2017-08-28T12:34:54.482Z,31.40
2017-08-28T12:37:20.914Z,31.30
2017-08-28T12:39:47.435Z,31.20
2017-08-28T12:42:13.909Z,30.80
2017-08-28T12:44:40.356Z,31.00
2017-08-28T12:47:06.903Z,31.00
2017-08-28T12:49:33.354Z,30.60
2017-08-28T12:51:59.829Z,30.80
2017-08-28T12:54:26.308Z,31.00
2017-08-28T12:56:52.741Z,30.70
2017-08-28T12:59:19.253Z,30.50
2017-08-28T13:01:45.689Z,30.20
2017-08-28T13:04:12.184Z,29.80
2017-08-28T13:06:38.657Z,29.60
2017-08-28T13:09:05.176Z,29.40
2017-08-28T13:11:31.677Z,29.60
2017-08-28T13:13:58.129Z,29.70
2017-08-28T13:16:24.629Z,29.80
2017-08-28T13:18:51.123Z,29.80
2017-08-28T13:21:17.614Z,29.60
2017-08-28T13:23:44.118Z,29.60
2017-08-28T13:26:10.589Z,29.60
2017-08-28T13:28:37.092Z,29.60
2017-08-28T13:31:03.626Z,29.10
2017-08-28T13:33:30.103Z,28.50
2017-08-28T13:35:56.584Z,28.90
2017-08-28T13:38:23.070Z,29.20
2017-08-28T13:40:49.506Z,28.90
2017-08-28T13:43:16.004Z,28.70
2017-08-28T13:45:42.470Z,28.50
2017-08-28T13:48:08.919Z,28.50
2017-08-28T13:50:35.416Z,28.50
2017-08-28T13:53:01.901Z,28.80
2017-08-28T13:55:28.385Z,28.70
2017-08-28T13:57:54.845Z,28.70
2017-08-28T14:00:21.361Z,28.70
2017-08-28T14:02:47.906Z,28.60
2017-08-28T14:05:14.363Z,28.60
2017-08-28T14:20:59.915Z,28.40
2017-08-28T14:23:26.389Z,28.50
2017-08-28T14:25:52.861Z,28.50
2017-08-28T14:28:19.463Z,28.40
2017-08-28T14:30:45.942Z,28.30
2017-08-28T14:33:12.451Z,28.30
2017-08-28T14:35:39.710Z,28.50
2017-08-28T14:38:06.213Z,28.30
2017-08-28T14:40:35.327Z,28.20
2017-08-28T14:43:02.219Z,28.10
2017-08-28T14:45:28.698Z,28.10
2017-08-28T14:50:55.573Z,27.70
2017-08-28T14:53:22.029Z,26.80
2017-08-28T14:55:48.565Z,26.70
2017-08-28T14:58:15.006Z,26.60
2017-08-28T15:00:41.521Z,26.50
2017-08-28T15:03:08.041Z,26.70
2017-08-28T15:05:34.494Z,26.70
2017-08-28T15:08:00.989Z,26.30
2017-08-28T15:10:27.557Z,26.40
2017-08-28T15:12:54.001Z,26.10
2017-08-28T15:15:20.450Z,26.40
2017-08-28T15:17:46.943Z,26.40
2017-08-28T15:20:13.436Z,26.50
2017-08-28T15:22:39.905Z,26.40
2017-08-28T15:25:06.354Z,26.30
2017-08-28T15:27:32.800Z,26.40
2017-08-28T15:29:59.374Z,26.60
2017-08-28T15:32:25.831Z,26.40
2017-08-28T15:34:52.287Z,26.10
2017-08-28T15:37:19.632Z,26.10
2017-08-28T15:39:46.060Z,25.70
2017-08-28T15:42:12.529Z,25.70
2017-08-28T15:44:39.105Z,25.70
2017-08-28T15:47:05.592Z,25.80
2017-08-28T15:49:32.106Z,25.40
2017-08-28T15:51:58.581Z,25.40
2017-08-28T15:54:25.057Z,25.60
2017-08-28T15:56:51.508Z,25.40
2017-08-28T15:59:17.978Z,25.50
2017-08-28T16:01:44.451Z,25.70
2017-08-28T16:04:10.989Z,25.50
2017-08-28T16:06:37.445Z,25.50
2017-08-28T16:09:03.985Z,25.40
2017-08-28T16:11:30.492Z,25.30
2017-08-28T16:13:56.953Z,25.40
2017-08-28T16:16:23.422Z,25.50
2017-08-28T16:18:49.872Z,25.40
2017-08-28T16:21:16.342Z,25.50
2017-08-28T16:23:42.805Z,25.60
2017-08-28T16:26:09.275Z,25.60
2017-08-28T16:28:35.741Z,25.70
2017-08-28T16:31:02.206Z,25.80
2017-08-28T16:33:28.676Z,25.80
2017-08-28T16:35:55.175Z,25.80
2017-08-28T16:38:21.671Z,25.70
2017-08-28T16:40:48.220Z,25.50
2017-08-28T16:43:15.247Z,25.50
2017-08-28T16:45:41.807Z,25.40
2017-08-28T16:48:08.289Z,25.60
2017-08-28T16:50:34.880Z,25.50
2017-08-28T16:53:01.368Z,25.50
2017-08-28T16:55:27.832Z,25.40
2017-08-28T16:57:54.270Z,25.40
2017-08-28T17:00:20.786Z,25.50
2017-08-28T17:02:47.239Z,25.00
2017-08-28T17:05:13.745Z,25.20
2017-08-28T17:07:40.192Z,25.30
2017-08-28T17:10:06.685Z,25.30
2017-08-28T17:12:33.200Z,25.20
2017-08-28T17:14:59.636Z,25.30
2017-08-28T17:17:26.162Z,25.30
2017-08-28T17:19:52.613Z,25.30
2017-08-28T17:22:19.114Z,25.20
2017-08-28T17:24:45.577Z,25.10
2017-08-28T17:27:11.998Z,25.00
2017-08-28T17:29:38.441Z,24.80
2017-08-28T17:32:04.950Z,24.90
2017-08-28T17:34:31.468Z,24.80
2017-08-28T17:36:57.934Z,24.70
2017-08-28T17:39:24.397Z,24.60
2017-08-28T17:41:50.847Z,24.60
2017-08-28T17:44:17.417Z,24.50
2017-08-28T17:46:43.913Z,24.50
2017-08-28T17:49:10.386Z,24.50
2017-08-28T17:51:36.829Z,24.40
2017-08-28T17:54:03.324Z,24.40
2017-08-28T17:56:29.758Z,24.20
2017-08-28T17:58:56.196Z,24.10
2017-08-28T18:01:22.690Z,24.20
2017-08-28T18:03:49.168Z,24.20
2017-08-28T18:06:15.634Z,24.20
2017-08-28T18:08:42.144Z,24.10
2017-08-28T18:11:08.606Z,24.10
2017-08-28T18:13:35.076Z,24.00
2017-08-28T18:16:01.559Z,23.80
2017-08-28T18:18:27.996Z,23.80
2017-08-28T18:20:54.484Z,23.80
2017-08-28T18:23:21.054Z,23.80
2017-08-28T18:25:47.561Z,23.80
2017-08-28T18:28:14.056Z,23.80
2017-08-28T18:30:40.565Z,23.70
2017-08-28T18:33:07.106Z,23.50
2017-08-28T18:35:33.681Z,23.50
2017-08-28T18:38:00.157Z,23.40
2017-08-28T18:40:26.642Z,23.40
2017-08-28T18:42:53.187Z,23.40
2017-08-28T18:45:19.753Z,23.40
2017-08-28T18:47:46.280Z,23.40
2017-08-28T18:50:12.789Z,23.30
2017-08-28T18:52:39.269Z,23.20
2017-08-28T18:55:05.712Z,23.10
2017-08-28T18:57:32.188Z,23.00
2017-08-28T18:59:58.669Z,22.80
2017-08-28T19:02:25.106Z,22.70
2017-08-28T19:04:51.597Z,22.40
2017-08-28T19:07:18.184Z,22.40
2017-08-28T19:09:44.666Z,22.30
2017-08-28T19:12:11.135Z,22.50
2017-08-28T19:14:37.657Z,22.70
2017-08-28T19:17:04.182Z,22.60
2017-08-28T19:19:30.672Z,22.60
2017-08-28T19:21:57.206Z,22.60
2017-08-28T19:24:23.704Z,22.70
2017-08-28T19:26:50.189Z,22.50
2017-08-28T19:29:16.724Z,22.50
2017-08-28T19:31:43.288Z,22.40
2017-08-28T19:34:13.777Z,22.50
2017-08-28T19:36:40.834Z,22.60
2017-08-28T19:39:07.326Z,22.50
2017-08-28T19:41:33.795Z,22.20
2017-08-28T19:44:00.290Z,22.30
2017-08-28T19:46:26.730Z,22.30
2017-08-28T19:48:53.222Z,22.10
2017-08-28T19:51:19.750Z,22.00
2017-08-28T19:53:47.076Z,22.10
2017-08-28T19:56:13.584Z,21.80
2017-08-28T19:58:40.020Z,21.40
2017-08-28T20:01:06.482Z,21.30
2017-08-28T20:03:32.945Z,21.20
2017-08-28T20:05:59.474Z,20.90
2017-08-28T20:08:25.981Z,20.70
2017-08-28T20:10:52.432Z,20.80
2017-08-28T20:13:18.970Z,21.00
2017-08-28T20:15:45.510Z,21.00
2017-08-28T20:18:12.017Z,20.70
2017-08-28T20:20:38.530Z,20.30
2017-08-28T20:23:05.028Z,20.30
2017-08-28T20:25:31.506Z,20.40
2017-08-28T20:27:57.975Z,20.40
2017-08-28T20:30:24.444Z,20.30
2017-08-28T20:32:50.954Z,20.00
2017-08-28T20:35:17.440Z,20.10
2017-08-28T20:37:43.932Z,19.90
2017-08-28T20:40:10.404Z,20.10
2017-08-28T20:42:37.630Z,20.20
2017-08-28T20:45:04.143Z,20.20
2017-08-28T20:47:30.581Z,20.40
2017-08-28T20:49:57.152Z,20.40
2017-08-28T20:52:23.660Z,20.30
2017-08-28T20:54:50.137Z,19.90
2017-08-28T20:57:16.665Z,20.00
2017-08-28T20:59:43.137Z,19.50
2017-08-28T21:02:09.647Z,19.70
2017-08-28T21:04:36.109Z,19.40
2017-08-28T21:07:02.586Z,19.50
2017-08-28T21:09:29.168Z,19.70
2017-08-28T21:11:55.609Z,19.40
2017-08-28T21:14:22.064Z,19.30
2017-08-28T21:16:48.553Z,19.40
2017-08-28T21:19:15.030Z,19.60
2017-08-28T21:21:41.589Z,19.70
2017-08-28T21:24:08.036Z,19.90
2017-08-28T21:26:34.481Z,20.00
2017-08-28T21:29:00.968Z,19.70
2017-08-28T21:31:27.565Z,19.50
2017-08-28T21:33:54.090Z,19.40
2017-08-28T21:36:20.597Z,19.50
2017-08-28T21:38:47.129Z,19.60
2017-08-28T21:41:13.590Z,19.70
2017-08-28T21:43:40.054Z,19.80
2017-08-28T21:46:07.512Z,19.90
2017-08-28T21:48:33.969Z,19.90
2017-08-28T21:51:00.473Z,19.80
2017-08-28T21:53:26.948Z,19.70
2017-08-28T21:55:53.454Z,19.90
2017-08-28T21:58:19.888Z,20.00
2017-08-28T22:00:46.390Z,20.00
2017-08-28T22:03:12.878Z,20.00
2017-08-28T22:05:39.360Z,20.00
2017-08-28T22:08:05.913Z,20.00
2017-08-28T22:10:32.376Z,20.00
2017-08-28T22:12:58.854Z,20.00
2017-08-28T22:15:25.353Z,20.00
2017-08-28T22:17:51.853Z,19.90
2017-08-28T22:20:18.334Z,19.60
2017-08-28T22:22:44.814Z,19.40
2017-08-28T22:25:11.278Z,19.40
2017-08-28T22:27:37.792Z,19.30
2017-08-28T22:30:04.262Z,19.30
2017-08-28T22:32:31.410Z,19.30
2017-08-28T22:34:57.918Z,19.20
2017-08-28T22:37:24.404Z,19.30
2017-08-28T22:39:50.865Z,19.30
2017-08-28T22:42:17.387Z,19.40
2017-08-28T22:44:43.937Z,19.40
2017-08-28T22:47:10.397Z,19.50
2017-08-28T22:49:36.950Z,19.50
2017-08-28T22:52:03.474Z,19.60
2017-08-28T22:54:29.913Z,19.60
2017-08-28T22:56:56.381Z,19.60
2017-08-28T22:59:22.836Z,19.70
2017-08-28T23:01:49.329Z,19.70
2017-08-28T23:04:15.788Z,19.60
2017-08-28T23:06:42.255Z,19.60
2017-08-28T23:09:08.726Z,19.40
2017-08-28T23:11:35.243Z,19.40
2017-08-28T23:14:01.742Z,19.40
2017-08-28T23:16:28.174Z,19.40
2017-08-28T23:18:54.721Z,19.50
2017-08-28T23:21:21.241Z,19.50
2017-08-28T23:23:47.755Z,19.50
2017-08-28T23:26:14.205Z,19.50
2017-08-28T23:28:40.672Z,19.50
2017-08-28T23:31:07.139Z,19.50
2017-08-28T23:33:33.695Z,19.50
2017-08-28T23:36:00.139Z,19.50
2017-08-28T23:38:26.634Z,19.50
2017-08-28T23:40:53.093Z,19.50
2017-08-28T23:43:19.528Z,19.40
2017-08-28T23:45:46.010Z,19.30
2017-08-28T23:48:12.488Z,19.30
2017-08-28T23:50:38.954Z,19.30
2017-08-28T23:53:05.470Z,19.30
2017-08-28T23:55:31.925Z,19.30
2017-08-28T23:57:58.392Z,19.30
